Howell, Michigan
Current Conditions -  °F | °C
As of 7:35 AM on Monday 24 Nov 2014 (Local Time) from KOZW Reporting Station
Drizzle Drizzle  
Wind Chill: 51°   Ceiling: 900
Heat Index: 51°   Visibility: 3mi
Dew Point: 51°   Wind: 12mph
Humidity: 97%   Direction: 200°SSW
Pressure: 29.1"   Gusts: 17mph
Location:  42.61°N, 83.92°W
Report Text: KOZW 241235Z AUTO 20010G15KT 3SM +DZ BKN009 OVC014 11/10 A2910 RMK AO2 T01070103
Loading
Personal Weather Stations






























Interactive Weather Map New forecast layout! Learn more

10-Day Weather Forecast

Advertisements
Track Severe Weather on mobile